Terminal Aerodrome Forecast
Issued by NWS Duluth, MN

Home | Current Version | Previous Version | Text Only | Print | Product List | Glossary On
Versions: 1 2 3 4 5 6 7 8 9 10 11 12 13 14 15 16 17 18 19 20 21 22 23 24 25 26 27 28 29
000
FTUS43 KDLH 311144
TAFDLH
TAF
KDLH 311144Z 3112/0112 09016G26KT P6SM -SHRA SCT050 BKN080
     FM311500 10017G27KT 5SM -SHRA BR SCT012 BKN025
     FM311700 10016G24KT 2SM -RA BR VCTS SCT004 OVC008CB
     FM312100 12012G18KT 5SM BR VCTS BKN008 OVC012CB
     FM010300 13008KT 2SM BR OVC004
     FM010800 16007KT P6SM SCT012 BKN080=

USA.gov is the U.S. government's official web portal to all federal, state and local government web resources and services.